CheckWX is a tool to help pilots better visualize weather data.  It is not intended as a substitute for an official pre-flight weather briefing.

09:07:56 UTC

LHBP TAF
Budapest Ferenc Liszt International Airport
Budapest, Hungary
TAF LHBP 070515Z 0706/0806 11004KT 3500 BR OVC005 TEMPO 0706/0712 0400 -FZDZ FZFG OVC001 BECMG 0710/0712 17004KT TEMPO 0712/0722 1200 BR BCFG BKN003 OVC008 BECMG 0713/0715 22005KT TEMPO 0722/0806 18004KT 0600 FG OVC002

Dec-7@
06:00 UTC

Dec-7 @ 06:00 UTC

Dec-7@
10:00 UTC

Dec-7 @ 10:00 UTC

TAF LHBP 070515Z 0706/0806 11004KT 3500 BR OVC005
Wind
  • 110° at 4 KTS
Conditions
Mist
Cloud Levels
  • Overcast at 500' AGL

Dec-7@
06:00 UTC

Dec-7 @ 06:00 UTC

Dec-7@
12:00 UTC

Dec-7 @ 12:00 UTC

TEMPO 0706/0712 0400 -FZDZ FZFG OVC001

Temporary

Temporary Changes expected for less than half the time period

Conditions
Light Freezing Light Drizzle, Freezing Fog
Cloud Levels
  • Overcast at 100' AGL

Dec-7@
10:00 UTC

Dec-7 @ 10:00 UTC

Dec-7@
13:00 UTC

Dec-7 @ 13:00 UTC

BECMG 0710/0712 17004KT

Becoming

Becoming Conditions expected by Sat, Dec 7, 2019 @ 12:00 UTC

Wind
  • 170° at 4 KTS
Conditions
Mist
Cloud Levels
  • Overcast at 500' AGL

Dec-7@
12:00 UTC

Dec-7 @ 12:00 UTC

Dec-7@
22:00 UTC

Dec-7 @ 22:00 UTC

TEMPO 0712/0722 1200 BR BCFG BKN003 OVC008

Temporary

Temporary Changes expected for less than half the time period

Conditions
Mist, Patches of Fog
Cloud Levels
  • Broken at 300' AGL
  • Overcast at 800' AGL

Dec-7@
13:00 UTC

Dec-7 @ 13:00 UTC

Dec-8@
06:00 UTC

Dec-8 @ 06:00 UTC

BECMG 0713/0715 22005KT

Becoming

Becoming Conditions expected by Sat, Dec 7, 2019 @ 15:00 UTC

Wind
  • 220° at 5 KTS
Conditions
Mist
Cloud Levels
  • Overcast at 500' AGL

Dec-7@
22:00 UTC

Dec-7 @ 22:00 UTC

Dec-8@
06:00 UTC

Dec-8 @ 06:00 UTC

TEMPO 0722/0806 18004KT 0600 FG OVC002

Temporary

Temporary Changes expected for less than half the time period

Wind
  • 180° at 4 KTS
Conditions
Fog
Cloud Levels
  • Overcast at 200' AGL